sensor_id;sensor_type;location;lat;lon;timestamp;temperature;humidity
4054;DHT22;2042;47.956;9.222;2024-03-17T00:01:03;4.60;54.30
4054;DHT22;2042;47.956;9.222;2024-03-17T00:03:32;4.60;54.40
4054;DHT22;2042;47.956;9.222;2024-03-17T00:06:01;4.70;54.50
4054;DHT22;2042;47.956;9.222;2024-03-17T00:08:27;4.70;54.60
4054;DHT22;2042;47.956;9.222;2024-03-17T00:10:53;4.60;54.20
4054;DHT22;2042;47.956;9.222;2024-03-17T00:13:23;4.60;54.00
4054;DHT22;2042;47.956;9.222;2024-03-17T00:15:49;4.50;53.80
4054;DHT22;2042;47.956;9.222;2024-03-17T00:18:15;4.40;53.70
4054;DHT22;2042;47.956;9.222;2024-03-17T00:20:41;4.40;53.60
4054;DHT22;2042;47.956;9.222;2024-03-17T00:23:07;4.30;53.50
4054;DHT22;2042;47.956;9.222;2024-03-17T00:25:34;4.30;53.60
4054;DHT22;2042;47.956;9.222;2024-03-17T00:28:01;4.30;53.70
4054;DHT22;2042;47.956;9.222;2024-03-17T00:30:27;4.30;53.70
4054;DHT22;2042;47.956;9.222;2024-03-17T00:32:53;4.20;53.50
4054;DHT22;2042;47.956;9.222;2024-03-17T00:35:19;4.10;53.30
4054;DHT22;2042;47.956;9.222;2024-03-17T00:37:48;4.00;53.20
4054;DHT22;2042;47.956;9.222;2024-03-17T00:40:16;4.00;53.20
4054;DHT22;2042;47.956;9.222;2024-03-17T00:42:42;4.00;53.10
4054;DHT22;2042;47.956;9.222;2024-03-17T00:45:08;3.90;53.10
4054;DHT22;2042;47.956;9.222;2024-03-17T00:47:35;3.90;53.10
4054;DHT22;2042;47.956;9.222;2024-03-17T00:50:01;3.80;53.00
4054;DHT22;2042;47.956;9.222;2024-03-17T00:52:27;3.80;53.10
4054;DHT22;2042;47.956;9.222;2024-03-17T00:54:53;3.80;53.20
4054;DHT22;2042;47.956;9.222;2024-03-17T00:57:19;3.80;53.30
4054;DHT22;2042;47.956;9.222;2024-03-17T00:59:45;3.90;53.50
4054;DHT22;2042;47.956;9.222;2024-03-17T01:02:12;3.90;53.80
4054;DHT22;2042;47.956;9.222;2024-03-17T01:04:39;4.00;54.00
4054;DHT22;2042;47.956;9.222;2024-03-17T01:07:05;4.00;54.00
4054;DHT22;2042;47.956;9.222;2024-03-17T01:09:31;3.90;53.70
4054;DHT22;2042;47.956;9.222;2024-03-17T01:11:57;3.90;53.80
4054;DHT22;2042;47.956;9.222;2024-03-17T01:14:23;3.90;53.80
4054;DHT22;2042;47.956;9.222;2024-03-17T01:16:51;3.90;53.90
4054;DHT22;2042;47.956;9.222;2024-03-17T01:19:16;3.90;54.10
4054;DHT22;2042;47.956;9.222;2024-03-17T01:21:42;3.90;54.10
4054;DHT22;2042;47.956;9.222;2024-03-17T01:24:08;3.90;54.20
4054;DHT22;2042;47.956;9.222;2024-03-17T01:26:34;3.90;54.40
4054;DHT22;2042;47.956;9.222;2024-03-17T01:28:59;3.90;54.50
4054;DHT22;2042;47.956;9.222;2024-03-17T01:31:25;4.00;54.80
4054;DHT22;2042;47.956;9.222;2024-03-17T01:33:50;4.00;55.00
4054;DHT22;2042;47.956;9.222;2024-03-17T01:36:16;4.10;55.20
4054;DHT22;2042;47.956;9.222;2024-03-17T01:38:42;4.10;55.30
4054;DHT22;2042;47.956;9.222;2024-03-17T01:41:07;4.20;55.50
4054;DHT22;2042;47.956;9.222;2024-03-17T01:43:33;4.20;55.70
4054;DHT22;2042;47.956;9.222;2024-03-17T01:45:59;4.30;55.90
4054;DHT22;2042;47.956;9.222;2024-03-17T01:48:25;4.30;56.00
4054;DHT22;2042;47.956;9.222;2024-03-17T01:50:53;4.30;56.00
4054;DHT22;2042;47.956;9.222;2024-03-17T01:53:21;4.20;55.60
4054;DHT22;2042;47.956;9.222;2024-03-17T01:55:51;4.20;55.30
4054;DHT22;2042;47.956;9.222;2024-03-17T01:58:19;4.10;55.00
4054;DHT22;2042;47.956;9.222;2024-03-17T02:00:45;4.00;54.90
4054;DHT22;2042;47.956;9.222;2024-03-17T02:03:12;4.00;54.80
4054;DHT22;2042;47.956;9.222;2024-03-17T02:05:38;3.90;54.60
4054;DHT22;2042;47.956;9.222;2024-03-17T02:08:05;3.80;54.40
4054;DHT22;2042;47.956;9.222;2024-03-17T02:10:32;3.80;54.20
4054;DHT22;2042;47.956;9.222;2024-03-17T02:12:59;3.70;53.90
4054;DHT22;2042;47.956;9.222;2024-03-17T02:15:25;3.60;53.50
4054;DHT22;2042;47.956;9.222;2024-03-17T02:17:51;3.40;53.00
4054;DHT22;2042;47.956;9.222;2024-03-17T02:20:17;3.30;52.70
4054;DHT22;2042;47.956;9.222;2024-03-17T02:22:43;3.20;52.40
4054;DHT22;2042;47.956;9.222;2024-03-17T02:25:09;3.00;52.60
4054;DHT22;2042;47.956;9.222;2024-03-17T02:27:38;2.90;52.00
4054;DHT22;2042;47.956;9.222;2024-03-17T02:30:04;2.90;52.10
4054;DHT22;2042;47.956;9.222;2024-03-17T02:32:34;2.90;52.30
4054;DHT22;2042;47.956;9.222;2024-03-17T02:34:59;2.90;52.30
4054;DHT22;2042;47.956;9.222;2024-03-17T02:37:25;2.80;52.20
4054;DHT22;2042;47.956;9.222;2024-03-17T02:39:51;2.80;52.10
4054;DHT22;2042;47.956;9.222;2024-03-17T02:42:17;2.70;51.80
4054;DHT22;2042;47.956;9.222;2024-03-17T02:44:42;2.60;51.70
4054;DHT22;2042;47.956;9.222;2024-03-17T02:47:08;2.60;51.70
4054;DHT22;2042;47.956;9.222;2024-03-17T02:49:40;2.50;51.80
4054;DHT22;2042;47.956;9.222;2024-03-17T02:52:10;2.60;51.90
4054;DHT22;2042;47.956;9.222;2024-03-17T02:54:36;2.60;52.00
4054;DHT22;2042;47.956;9.222;2024-03-17T02:57:03;2.70;52.30
4054;DHT22;2042;47.956;9.222;2024-03-17T02:59:29;2.80;52.50
4054;DHT22;2042;47.956;9.222;2024-03-17T03:01:55;2.80;52.60
4054;DHT22;2042;47.956;9.222;2024-03-17T03:04:21;2.80;52.60
4054;DHT22;2042;47.956;9.222;2024-03-17T03:06:47;2.80;52.80
4054;DHT22;2042;47.956;9.222;2024-03-17T03:09:13;2.90;53.10
4054;DHT22;2042;47.956;9.222;2024-03-17T03:11:41;3.10;53.50
4054;DHT22;2042;47.956;9.222;2024-03-17T03:14:07;3.20;53.90
4054;DHT22;2042;47.956;9.222;2024-03-17T03:16:33;3.30;54.20
4054;DHT22;2042;47.956;9.222;2024-03-17T03:18:59;3.30;54.40
4054;DHT22;2042;47.956;9.222;2024-03-17T03:21:25;3.40;54.50
4054;DHT22;2042;47.956;9.222;2024-03-17T03:23:51;3.40;54.50
4054;DHT22;2042;47.956;9.222;2024-03-17T03:26:18;3.30;54.50
4054;DHT22;2042;47.956;9.222;2024-03-17T03:28:44;3.40;54.70
4054;DHT22;2042;47.956;9.222;2024-03-17T03:31:13;3.40;54.80
4054;DHT22;2042;47.956;9.222;2024-03-17T03:33:42;3.50;55.10
4054;DHT22;2042;47.956;9.222;2024-03-17T03:38:35;3.60;55.40
4054;DHT22;2042;47.956;9.222;2024-03-17T03:41:07;3.70;55.60
4054;DHT22;2042;47.956;9.222;2024-03-17T03:43:32;3.70;55.80
4054;DHT22;2042;47.956;9.222;2024-03-17T03:45:59;3.80;55.90
4054;DHT22;2042;47.956;9.222;2024-03-17T03:48:25;3.80;56.00
4054;DHT22;2042;47.956;9.222;2024-03-17T03:50:51;3.90;56.10
4054;DHT22;2042;47.956;9.222;2024-03-17T03:53:16;3.90;56.30
4054;DHT22;2042;47.956;9.222;2024-03-17T03:55:42;3.90;56.30
4054;DHT22;2042;47.956;9.222;2024-03-17T03:58:07;3.90;56.40
4054;DHT22;2042;47.956;9.222;2024-03-17T04:00:33;3.90;56.40
4054;DHT22;2042;47.956;9.222;2024-03-17T04:03:00;3.90;56.30
4054;DHT22;2042;47.956;9.222;2024-03-17T04:05:27;3.90;56.20
4054;DHT22;2042;47.956;9.222;2024-03-17T04:07:53;3.80;56.10
4054;DHT22;2042;47.956;9.222;2024-03-17T04:10:19;3.80;56.10
4054;DHT22;2042;47.956;9.222;2024-03-17T04:12:46;3.80;56.00
4054;DHT22;2042;47.956;9.222;2024-03-17T04:15:12;3.70;55.70
4054;DHT22;2042;47.956;9.222;2024-03-17T04:17:39;3.60;55.20
4054;DHT22;2042;47.956;9.222;2024-03-17T04:20:06;3.40;54.90
4054;DHT22;2042;47.956;9.222;2024-03-17T04:22:35;3.40;54.80
4054;DHT22;2042;47.956;9.222;2024-03-17T04:25:00;3.40;54.90
4054;DHT22;2042;47.956;9.222;2024-03-17T04:27:26;3.40;55.00
4054;DHT22;2042;47.956;9.222;2024-03-17T04:29:53;3.40;55.20
4054;DHT22;2042;47.956;9.222;2024-03-17T04:32:20;3.40;55.20
4054;DHT22;2042;47.956;9.222;2024-03-17T04:34:45;3.40;55.00
4054;DHT22;2042;47.956;9.222;2024-03-17T04:37:12;3.30;54.80
4054;DHT22;2042;47.956;9.222;2024-03-17T04:39:39;3.20;54.70
4054;DHT22;2042;47.956;9.222;2024-03-17T04:42:06;3.20;54.60
4054;DHT22;2042;47.956;9.222;2024-03-17T04:44:32;3.10;54.40
4054;DHT22;2042;47.956;9.222;2024-03-17T04:46:58;3.10;54.40
4054;DHT22;2042;47.956;9.222;2024-03-17T04:49:23;3.10;55.10
4054;DHT22;2042;47.956;9.222;2024-03-17T04:51:49;3.10;54.50
4054;DHT22;2042;47.956;9.222;2024-03-17T04:54:15;3.10;54.60
4054;DHT22;2042;47.956;9.222;2024-03-17T04:56:40;3.10;54.70
4054;DHT22;2042;47.956;9.222;2024-03-17T04:59:06;3.20;54.80
4054;DHT22;2042;47.956;9.222;2024-03-17T05:01:32;3.20;54.90
4054;DHT22;2042;47.956;9.222;2024-03-17T05:04:04;3.20;54.90
4054;DHT22;2042;47.956;9.222;2024-03-17T05:06:30;3.20;54.90
4054;DHT22;2042;47.956;9.222;2024-03-17T05:08:56;3.20;54.80
4054;DHT22;2042;47.956;9.222;2024-03-17T05:11:22;3.20;54.90
4054;DHT22;2042;47.956;9.222;2024-03-17T05:13:49;3.20;54.90
4054;DHT22;2042;47.956;9.222;2024-03-17T05:16:15;3.20;54.90
4054;DHT22;2042;47.956;9.222;2024-03-17T05:18:41;3.20;55.00
4054;DHT22;2042;47.956;9.222;2024-03-17T05:21:08;3.20;54.90
4054;DHT22;2042;47.956;9.222;2024-03-17T05:23:35;3.10;54.70
4054;DHT22;2042;47.956;9.222;2024-03-17T05:26:02;3.00;54.60
4054;DHT22;2042;47.956;9.222;2024-03-17T05:28:30;3.00;54.50
4054;DHT22;2042;47.956;9.222;2024-03-17T05:30:56;2.90;54.30
4054;DHT22;2042;47.956;9.222;2024-03-17T05:33:23;2.90;54.40
4054;DHT22;2042;47.956;9.222;2024-03-17T05:35:56;2.90;54.50
4054;DHT22;2042;47.956;9.222;2024-03-17T05:38:23;3.00;54.50
4054;DHT22;2042;47.956;9.222;2024-03-17T05:41:04;2.90;54.40
4054;DHT22;2042;47.956;9.222;2024-03-17T05:43:32;2.80;54.10
4054;DHT22;2042;47.956;9.222;2024-03-17T05:46:12;2.70;54.00
4054;DHT22;2042;47.956;9.222;2024-03-17T05:48:41;2.80;54.20
4054;DHT22;2042;47.956;9.222;2024-03-17T05:51:07;2.90;54.40
4054;DHT22;2042;47.956;9.222;2024-03-17T05:53:34;3.00;54.60
4054;DHT22;2042;47.956;9.222;2024-03-17T05:56:03;3.10;54.80
4054;DHT22;2042;47.956;9.222;2024-03-17T05:58:31;3.30;55.10
4054;DHT22;2042;47.956;9.222;2024-03-17T06:00:56;3.40;55.40
4054;DHT22;2042;47.956;9.222;2024-03-17T06:03:23;3.60;55.80
4054;DHT22;2042;47.956;9.222;2024-03-17T06:05:49;3.70;56.10
4054;DHT22;2042;47.956;9.222;2024-03-17T06:08:15;3.80;56.40
4054;DHT22;2042;47.956;9.222;2024-03-17T06:10:46;3.90;56.60
4054;DHT22;2042;47.956;9.222;2024-03-17T06:13:13;3.90;56.70
4054;DHT22;2042;47.956;9.222;2024-03-17T06:15:41;4.00;57.00
4054;DHT22;2042;47.956;9.222;2024-03-17T06:18:09;4.10;57.00
4054;DHT22;2042;47.956;9.222;2024-03-17T06:20:40;4.20;57.00
4054;DHT22;2042;47.956;9.222;2024-03-17T06:23:09;4.50;56.70
4054;DHT22;2042;47.956;9.222;2024-03-17T06:25:46;5.00;55.40
4054;DHT22;2042;47.956;9.222;2024-03-17T06:28:14;5.60;54.60
4054;DHT22;2042;47.956;9.222;2024-03-17T06:30:44;6.00;55.10
4054;DHT22;2042;47.956;9.222;2024-03-17T06:33:12;6.10;58.50
4054;DHT22;2042;47.956;9.222;2024-03-17T06:35:39;6.00;60.00
4054;DHT22;2042;47.956;9.222;2024-03-17T06:38:05;5.90;60.80
4054;DHT22;2042;47.956;9.222;2024-03-17T06:40:35;5.90;60.40
4054;DHT22;2042;47.956;9.222;2024-03-17T06:43:01;6.20;59.10
4054;DHT22;2042;47.956;9.222;2024-03-17T06:45:27;6.80;57.70
4054;DHT22;2042;47.956;9.222;2024-03-17T06:47:52;7.40;57.40
4054;DHT22;2042;47.956;9.222;2024-03-17T06:50:18;7.80;60.30
4054;DHT22;2042;47.956;9.222;2024-03-17T06:52:44;8.30;63.00
4054;DHT22;2042;47.956;9.222;2024-03-17T06:55:09;8.80;65.10
4054;DHT22;2042;47.956;9.222;2024-03-17T06:57:35;9.20;68.00
4054;DHT22;2042;47.956;9.222;2024-03-17T07:00:02;9.60;69.80
4054;DHT22;2042;47.956;9.222;2024-03-17T07:02:32;9.90;70.90
4054;DHT22;2042;47.956;9.222;2024-03-17T07:04:58;10.30;69.40
4054;DHT22;2042;47.956;9.222;2024-03-17T07:07:26;10.60;67.50
4054;DHT22;2042;47.956;9.222;2024-03-17T07:09:52;11.00;65.10
4054;DHT22;2042;47.956;9.222;2024-03-17T07:12:17;11.40;61.40
4054;DHT22;2042;47.956;9.222;2024-03-17T07:14:44;11.70;56.30
4054;DHT22;2042;47.956;9.222;2024-03-17T07:17:10;12.00;44.20
4054;DHT22;2042;47.956;9.222;2024-03-17T07:19:36;12.30;36.40
4054;DHT22;2042;47.956;9.222;2024-03-17T07:22:02;12.60;28.60
4054;DHT22;2042;47.956;9.222;2024-03-17T07:24:29;13.00;23.00
4054;DHT22;2042;47.956;9.222;2024-03-17T07:26:55;13.30;16.00
4054;DHT22;2042;47.956;9.222;2024-03-17T07:29:21;13.60;8.10
4054;DHT22;2042;47.956;9.222;2024-03-17T07:31:47;13.90;1.40
4054;DHT22;2042;47.956;9.222;2024-03-17T07:34:13;14.20;1.00
4054;DHT22;2042;47.956;9.222;2024-03-17T07:36:38;14.60;1.00
4054;DHT22;2042;47.956;9.222;2024-03-17T07:39:05;15.10;1.00
4054;DHT22;2042;47.956;9.222;2024-03-17T07:41:32;15.50;1.00
4054;DHT22;2042;47.956;9.222;2024-03-17T07:43:58;15.60;1.00
4054;DHT22;2042;47.956;9.222;2024-03-17T07:46:23;15.60;1.00
4054;DHT22;2042;47.956;9.222;2024-03-17T07:48:49;15.40;1.00
4054;DHT22;2042;47.956;9.222;2024-03-17T07:51:16;15.10;1.00
4054;DHT22;2042;47.956;9.222;2024-03-17T07:53:46;14.70;1.00
4054;DHT22;2042;47.956;9.222;2024-03-17T07:56:14;14.50;1.00
4054;DHT22;2042;47.956;9.222;2024-03-17T07:58:41;14.40;1.00
4054;DHT22;2042;47.956;9.222;2024-03-17T08:03:36;13.90;1.00
4054;DHT22;2042;47.956;9.222;2024-03-17T08:06:05;13.80;1.00
4054;DHT22;2042;47.956;9.222;2024-03-17T08:08:31;13.90;1.00
4054;DHT22;2042;47.956;9.222;2024-03-17T08:10:57;14.10;1.00
4054;DHT22;2042;47.956;9.222;2024-03-17T08:13:23;14.40;1.00
4054;DHT22;2042;47.956;9.222;2024-03-17T08:15:58;14.40;1.00
4054;DHT22;2042;47.956;9.222;2024-03-17T08:18:24;14.30;1.00
4054;DHT22;2042;47.956;9.222;2024-03-17T08:20:50;14.20;1.00
4054;DHT22;2042;47.956;9.222;2024-03-17T08:23:16;14.20;1.00
4054;DHT22;2042;47.956;9.222;2024-03-17T08:25:41;14.20;1.00
4054;DHT22;2042;47.956;9.222;2024-03-17T08:28:07;14.10;1.00
4054;DHT22;2042;47.956;9.222;2024-03-17T08:30:33;14.20;1.00
4054;DHT22;2042;47.956;9.222;2024-03-17T08:32:59;14.30;1.00
4054;DHT22;2042;47.956;9.222;2024-03-17T08:35:25;14.40;1.00
4054;DHT22;2042;47.956;9.222;2024-03-17T08:37:51;14.60;1.00
4054;DHT22;2042;47.956;9.222;2024-03-17T08:40:20;14.70;1.00
4054;DHT22;2042;47.956;9.222;2024-03-17T08:42:45;14.70;1.00
4054;DHT22;2042;47.956;9.222;2024-03-17T08:45:11;14.60;1.00
4054;DHT22;2042;47.956;9.222;2024-03-17T08:47:38;14.60;1.00
4054;DHT22;2042;47.956;9.222;2024-03-17T08:50:04;15.00;1.00
4054;DHT22;2042;47.956;9.222;2024-03-17T08:52:30;15.60;1.00
4054;DHT22;2042;47.956;9.222;2024-03-17T08:54:59;15.80;1.00
4054;DHT22;2042;47.956;9.222;2024-03-17T08:57:25;15.60;1.00
4054;DHT22;2042;47.956;9.222;2024-03-17T08:59:50;15.30;1.00
4054;DHT22;2042;47.956;9.222;2024-03-17T09:02:20;15.10;1.00
4054;DHT22;2042;47.956;9.222;2024-03-17T09:04:47;14.80;1.00
4054;DHT22;2042;47.956;9.222;2024-03-17T09:07:13;14.20;1.00
4054;DHT22;2042;47.956;9.222;2024-03-17T09:09:41;14.00;1.00
4054;DHT22;2042;47.956;9.222;2024-03-17T09:12:07;14.00;1.00
4054;DHT22;2042;47.956;9.222;2024-03-17T09:14:33;14.00;1.00
4054;DHT22;2042;47.956;9.222;2024-03-17T09:16:59;14.20;1.00
4054;DHT22;2042;47.956;9.222;2024-03-17T09:19:24;14.30;1.00
4054;DHT22;2042;47.956;9.222;2024-03-17T09:21:50;14.20;1.00
4054;DHT22;2042;47.956;9.222;2024-03-17T09:24:15;14.40;1.00
4054;DHT22;2042;47.956;9.222;2024-03-17T09:26:41;14.90;1.00
4054;DHT22;2042;47.956;9.222;2024-03-17T09:29:06;15.80;1.00
4054;DHT22;2042;47.956;9.222;2024-03-17T09:31:32;16.90;1.00
4054;DHT22;2042;47.956;9.222;2024-03-17T09:34:03;17.70;1.00
4054;DHT22;2042;47.956;9.222;2024-03-17T09:36:30;18.30;1.00
4054;DHT22;2042;47.956;9.222;2024-03-17T09:38:56;18.40;1.00
4054;DHT22;2042;47.956;9.222;2024-03-17T09:41:24;18.60;1.00
4054;DHT22;2042;47.956;9.222;2024-03-17T09:43:55;18.70;1.00
4054;DHT22;2042;47.956;9.222;2024-03-17T09:46:26;18.70;1.00
4054;DHT22;2042;47.956;9.222;2024-03-17T09:48:53;18.20;1.00
4054;DHT22;2042;47.956;9.222;2024-03-17T09:51:23;17.30;1.00
4054;DHT22;2042;47.956;9.222;2024-03-17T09:53:51;16.90;1.00
4054;DHT22;2042;47.956;9.222;2024-03-17T09:56:21;16.80;1.00
4054;DHT22;2042;47.956;9.222;2024-03-17T09:58:48;16.80;1.00
4054;DHT22;2042;47.956;9.222;2024-03-17T10:01:14;17.10;1.00
4054;DHT22;2042;47.956;9.222;2024-03-17T10:03:47;17.30;1.00
4054;DHT22;2042;47.956;9.222;2024-03-17T10:06:30;17.40;1.00
4054;DHT22;2042;47.956;9.222;2024-03-17T10:08:57;17.40;1.00
4054;DHT22;2042;47.956;9.222;2024-03-17T10:11:24;17.10;1.00
4054;DHT22;2042;47.956;9.222;2024-03-17T10:14:04;16.70;1.00
4054;DHT22;2042;47.956;9.222;2024-03-17T10:16:32;16.10;1.00
4054;DHT22;2042;47.956;9.222;2024-03-17T10:21:33;15.50;1.00
4054;DHT22;2042;47.956;9.222;2024-03-17T10:24:26;15.60;1.00
4054;DHT22;2042;47.956;9.222;2024-03-17T10:26:55;16.10;1.00
4054;DHT22;2042;47.956;9.222;2024-03-17T10:29:34;16.10;1.00
4054;DHT22;2042;47.956;9.222;2024-03-17T10:32:14;16.00;1.00
4054;DHT22;2042;47.956;9.222;2024-03-17T10:34:40;16.60;1.00
4054;DHT22;2042;47.956;9.222;2024-03-17T10:37:10;16.80;1.00
4054;DHT22;2042;47.956;9.222;2024-03-17T10:39:37;16.60;1.00
4054;DHT22;2042;47.956;9.222;2024-03-17T10:42:05;16.70;1.00
4054;DHT22;2042;47.956;9.222;2024-03-17T10:44:34;16.50;1.00
4054;DHT22;2042;47.956;9.222;2024-03-17T10:47:00;16.30;1.00
4054;DHT22;2042;47.956;9.222;2024-03-17T10:49:34;16.90;1.00
4054;DHT22;2042;47.956;9.222;2024-03-17T10:52:18;17.60;1.00
4054;DHT22;2042;47.956;9.222;2024-03-17T10:54:49;18.10;1.00
4054;DHT22;2042;47.956;9.222;2024-03-17T10:59:56;18.40;1.00
4054;DHT22;2042;47.956;9.222;2024-03-17T11:02:27;18.50;1.00
4054;DHT22;2042;47.956;9.222;2024-03-17T11:05:00;18.70;1.00
4054;DHT22;2042;47.956;9.222;2024-03-17T11:07:27;18.90;1.00
4054;DHT22;2042;47.956;9.222;2024-03-17T11:09:56;19.10;1.00
4054;DHT22;2042;47.956;9.222;2024-03-17T11:17:51;17.90;1.00
4054;DHT22;2042;47.956;9.222;2024-03-17T11:20:21;17.50;1.00
4054;DHT22;2042;47.956;9.222;2024-03-17T11:22:52;17.20;1.00
4054;DHT22;2042;47.956;9.222;2024-03-17T11:38:58;16.40;1.00
4054;DHT22;2042;47.956;9.222;2024-03-17T11:41:44;16.30;1.00
4054;DHT22;2042;47.956;9.222;2024-03-17T11:47:05;16.20;1.00
4054;DHT22;2042;47.956;9.222;2024-03-17T11:49:42;16.10;1.00
4054;DHT22;2042;47.956;9.222;2024-03-17T11:52:10;16.20;1.00
4054;DHT22;2042;47.956;9.222;2024-03-17T11:54:42;16.40;1.00
4054;DHT22;2042;47.956;9.222;2024-03-17T11:57:13;16.70;1.00
4054;DHT22;2042;47.956;9.222;2024-03-17T11:59:40;17.00;1.00
4054;DHT22;2042;47.956;9.222;2024-03-17T12:04:57;17.90;1.00
4054;DHT22;2042;47.956;9.222;2024-03-17T12:07:23;18.00;1.00
4054;DHT22;2042;47.956;9.222;2024-03-17T12:09:53;18.00;1.00
4054;DHT22;2042;47.956;9.222;2024-03-17T12:12:22;18.10;1.00
4054;DHT22;2042;47.956;9.222;2024-03-17T12:14:49;18.00;1.00
4054;DHT22;2042;47.956;9.222;2024-03-17T12:17:23;17.60;1.00
4054;DHT22;2042;47.956;9.222;2024-03-17T12:19:49;17.70;1.00
4054;DHT22;2042;47.956;9.222;2024-03-17T12:22:20;17.60;1.00
4054;DHT22;2042;47.956;9.222;2024-03-17T12:24:51;17.40;1.00
4054;DHT22;2042;47.956;9.222;2024-03-17T12:27:20;16.90;1.00
4054;DHT22;2042;47.956;9.222;2024-03-17T12:29:48;16.50;1.00
4054;DHT22;2042;47.956;9.222;2024-03-17T12:34:53;16.20;1.00
4054;DHT22;2042;47.956;9.222;2024-03-17T12:37:22;15.80;1.00
4054;DHT22;2042;47.956;9.222;2024-03-17T12:39:48;15.30;1.00
4054;DHT22;2042;47.956;9.222;2024-03-17T12:42:24;14.90;1.00
4054;DHT22;2042;47.956;9.222;2024-03-17T12:44:52;14.60;1.00
4054;DHT22;2042;47.956;9.222;2024-03-17T12:47:19;14.50;1.00
4054;DHT22;2042;47.956;9.222;2024-03-17T12:49:50;14.60;1.00
4054;DHT22;2042;47.956;9.222;2024-03-17T12:52:20;14.80;1.00
4054;DHT22;2042;47.956;9.222;2024-03-17T12:55:03;15.00;1.00
4054;DHT22;2042;47.956;9.222;2024-03-17T12:57:52;15.10;1.00
4054;DHT22;2042;47.956;9.222;2024-03-17T13:00:37;15.30;1.00
4054;DHT22;2042;47.956;9.222;2024-03-17T13:03:06;15.30;1.00
4054;DHT22;2042;47.956;9.222;2024-03-17T13:05:34;15.20;1.00
4054;DHT22;2042;47.956;9.222;2024-03-17T13:08:00;15.10;1.00
4054;DHT22;2042;47.956;9.222;2024-03-17T13:10:27;15.40;1.00
4054;DHT22;2042;47.956;9.222;2024-03-17T13:13:07;15.70;1.00
4054;DHT22;2042;47.956;9.222;2024-03-17T13:15:33;16.00;1.00
4054;DHT22;2042;47.956;9.222;2024-03-17T13:18:03;15.90;1.00
4054;DHT22;2042;47.956;9.222;2024-03-17T13:20:30;15.90;1.00
4054;DHT22;2042;47.956;9.222;2024-03-17T13:22:56;15.90;1.00
4054;DHT22;2042;47.956;9.222;2024-03-17T13:25:30;15.80;1.00
4054;DHT22;2042;47.956;9.222;2024-03-17T13:28:00;15.40;1.00
4054;DHT22;2042;47.956;9.222;2024-03-17T13:30:26;15.20;1.00
4054;DHT22;2042;47.956;9.222;2024-03-17T13:32:54;15.00;1.00
4054;DHT22;2042;47.956;9.222;2024-03-17T13:35:27;14.90;1.00
4054;DHT22;2042;47.956;9.222;2024-03-17T13:37:57;15.10;1.00
4054;DHT22;2042;47.956;9.222;2024-03-17T13:40:29;15.00;1.00
4054;DHT22;2042;47.956;9.222;2024-03-17T13:42:56;14.90;1.00
4054;DHT22;2042;47.956;9.222;2024-03-17T13:45:23;14.80;1.00
4054;DHT22;2042;47.956;9.222;2024-03-17T13:47:56;14.70;1.00
4054;DHT22;2042;47.956;9.222;2024-03-17T13:50:22;14.60;1.00
4054;DHT22;2042;47.956;9.222;2024-03-17T13:52:48;14.40;1.00
4054;DHT22;2042;47.956;9.222;2024-03-17T13:55:18;14.30;1.00
4054;DHT22;2042;47.956;9.222;2024-03-17T13:57:45;13.90;1.00
4054;DHT22;2042;47.956;9.222;2024-03-17T14:00:12;13.60;1.00
4054;DHT22;2042;47.956;9.222;2024-03-17T14:02:47;13.50;1.00
4054;DHT22;2042;47.956;9.222;2024-03-17T14:05:15;13.70;1.00
4054;DHT22;2042;47.956;9.222;2024-03-17T14:07:42;13.70;1.00
4054;DHT22;2042;47.956;9.222;2024-03-17T14:10:09;13.80;1.00
4054;DHT22;2042;47.956;9.222;2024-03-17T14:12:36;14.00;1.00
4054;DHT22;2042;47.956;9.222;2024-03-17T14:15:04;14.20;1.00
4054;DHT22;2042;47.956;9.222;2024-03-17T14:17:33;14.40;1.00
4054;DHT22;2042;47.956;9.222;2024-03-17T14:19:59;14.50;1.00
4054;DHT22;2042;47.956;9.222;2024-03-17T14:22:24;14.60;1.00
4054;DHT22;2042;47.956;9.222;2024-03-17T14:24:50;14.50;1.00
4054;DHT22;2042;47.956;9.222;2024-03-17T14:27:16;14.50;1.00
4054;DHT22;2042;47.956;9.222;2024-03-17T14:29:43;14.50;1.00
4054;DHT22;2042;47.956;9.222;2024-03-17T14:32:09;14.30;1.00
4054;DHT22;2042;47.956;9.222;2024-03-17T14:34:34;14.20;1.00
4054;DHT22;2042;47.956;9.222;2024-03-17T14:37:02;14.10;1.00
4054;DHT22;2042;47.956;9.222;2024-03-17T14:39:32;14.00;1.00
4054;DHT22;2042;47.956;9.222;2024-03-17T14:41:57;13.80;1.00
4054;DHT22;2042;47.956;9.222;2024-03-17T14:44:23;13.40;1.00
4054;DHT22;2042;47.956;9.222;2024-03-17T14:46:49;13.00;1.00
4054;DHT22;2042;47.956;9.222;2024-03-17T14:49:20;12.70;1.00
4054;DHT22;2042;47.956;9.222;2024-03-17T14:51:46;12.70;1.00
4054;DHT22;2042;47.956;9.222;2024-03-17T14:54:11;12.60;1.00
4054;DHT22;2042;47.956;9.222;2024-03-17T14:56:38;12.60;1.00
4054;DHT22;2042;47.956;9.222;2024-03-17T14:59:05;12.50;1.00
4054;DHT22;2042;47.956;9.222;2024-03-17T15:01:31;12.30;1.00
4054;DHT22;2042;47.956;9.222;2024-03-17T15:03:57;12.20;1.00
4054;DHT22;2042;47.956;9.222;2024-03-17T15:06:22;12.10;1.00
4054;DHT22;2042;47.956;9.222;2024-03-17T15:08:50;12.10;1.00
4054;DHT22;2042;47.956;9.222;2024-03-17T15:11:16;12.10;1.00
4054;DHT22;2042;47.956;9.222;2024-03-17T15:13:43;12.20;1.00
4054;DHT22;2042;47.956;9.222;2024-03-17T15:16:10;12.20;1.00
4054;DHT22;2042;47.956;9.222;2024-03-17T15:18:36;12.10;1.00
4054;DHT22;2042;47.956;9.222;2024-03-17T15:21:03;12.10;1.00
4054;DHT22;2042;47.956;9.222;2024-03-17T15:23:31;12.10;1.00
4054;DHT22;2042;47.956;9.222;2024-03-17T15:26:04;12.00;1.00
4054;DHT22;2042;47.956;9.222;2024-03-17T15:28:41;11.90;1.00
4054;DHT22;2042;47.956;9.222;2024-03-17T15:31:07;12.00;1.00
4054;DHT22;2042;47.956;9.222;2024-03-17T15:33:34;12.00;1.00
4054;DHT22;2042;47.956;9.222;2024-03-17T15:36:06;12.10;1.00
4054;DHT22;2042;47.956;9.222;2024-03-17T15:38:37;12.20;1.00
4054;DHT22;2042;47.956;9.222;2024-03-17T15:41:04;12.20;1.00
4054;DHT22;2042;47.956;9.222;2024-03-17T15:43:33;12.10;1.00
4054;DHT22;2042;47.956;9.222;2024-03-17T15:46:00;12.10;1.00
4054;DHT22;2042;47.956;9.222;2024-03-17T15:48:26;12.10;1.00
4054;DHT22;2042;47.956;9.222;2024-03-17T15:50:57;12.10;1.00
4054;DHT22;2042;47.956;9.222;2024-03-17T15:53:24;12.10;1.00
4054;DHT22;2042;47.956;9.222;2024-03-17T15:55:59;12.10;1.00
4054;DHT22;2042;47.956;9.222;2024-03-17T15:58:26;12.10;1.00
4054;DHT22;2042;47.956;9.222;2024-03-17T16:00:53;11.90;1.00
4054;DHT22;2042;47.956;9.222;2024-03-17T16:03:20;11.80;1.00
4054;DHT22;2042;47.956;9.222;2024-03-17T16:05:51;11.60;1.00
4054;DHT22;2042;47.956;9.222;2024-03-17T16:08:18;11.40;1.00
4054;DHT22;2042;47.956;9.222;2024-03-17T16:10:50;11.20;1.00
4054;DHT22;2042;47.956;9.222;2024-03-17T16:13:17;11.00;1.00
4054;DHT22;2042;47.956;9.222;2024-03-17T16:15:46;10.90;1.00
4054;DHT22;2042;47.956;9.222;2024-03-17T16:18:15;10.80;1.00
4054;DHT22;2042;47.956;9.222;2024-03-17T16:23:16;10.70;1.00
4054;DHT22;2042;47.956;9.222;2024-03-17T16:25:42;10.60;1.00
4054;DHT22;2042;47.956;9.222;2024-03-17T16:28:09;10.60;1.00
4054;DHT22;2042;47.956;9.222;2024-03-17T16:30:37;10.50;1.00
4054;DHT22;2042;47.956;9.222;2024-03-17T16:33:03;10.50;1.00
4054;DHT22;2042;47.956;9.222;2024-03-17T16:35:30;10.30;1.00
4054;DHT22;2042;47.956;9.222;2024-03-17T16:37:55;10.20;1.00
4054;DHT22;2042;47.956;9.222;2024-03-17T16:40:21;10.00;1.00
4054;DHT22;2042;47.956;9.222;2024-03-17T16:42:46;9.80;1.00
4054;DHT22;2042;47.956;9.222;2024-03-17T16:45:12;9.70;1.00
4054;DHT22;2042;47.956;9.222;2024-03-17T16:47:38;9.60;1.00
4054;DHT22;2042;47.956;9.222;2024-03-17T16:50:08;9.60;1.00
4054;DHT22;2042;47.956;9.222;2024-03-17T16:52:35;9.60;1.00
4054;DHT22;2042;47.956;9.222;2024-03-17T16:55:02;9.60;1.00
4054;DHT22;2042;47.956;9.222;2024-03-17T16:57:31;9.60;1.00
4054;DHT22;2042;47.956;9.222;2024-03-17T16:59:57;9.60;1.00